Cfl Performer — PHLY — position and weather

sailwx.info

Track history (hours):
 
Tides and Currents Weather Stations Pressure Air Temp Water Temp Dewpoint Dewpoint Depression Visibility Wind Speed Wind Dir Waves Ship Positions

Cfl Performer

Last reported at 2014-Jul-25 10:33 UTC. Time now 2014-Jul-25 11:17 UTC.
Position N 53°38' W 000°12'.

Length 117 m; draft 6.2 m.

Type: Cargo ship. MMSI: 244989000.

Date/timePositionNaut miles runAvg speedWind from/ knotsBaromVisibWave heightAir tempDewpointWater temp
2014-Jul-25 10:33N 53°38' W 000°12'0 0.0
2014-Jul-25 09:33N 53°38' W 000°12'0 0.0
2014-Jul-25 08:33N 53°38' W 000°12'0 0.3
2014-Jul-25 07:34N 53°38' W 000°11'2 1.8
2014-Jul-25 06:33N 53°38' W 000°08'8 8.1
2014-Jul-25 05:34N 53°35' E 000°04'8 7.6
2014-Jul-25 04:34N 53°32' E 000°16'6 6.0
2014-Jul-25 03:33N 53°29' E 000°25'8 7.9
2014-Jul-25 02:34N 53°26' E 000°37'9 9.0
2014-Jul-25 01:33N 53°22' E 000°51'1010.0
2014-Jul-25 00:34N 53°16' E 001°04'1110.8
2014-Jul-24 23:33N 53°08' E 001°16'1110.7
2014-Jul-24 22:34N 52°59' E 001°27'1010.2
2014-Jul-24 21:34N 52°52' E 001°37'9 8.9
2014-Jul-24 20:33N 52°44' E 001°45'7 7.4
2014-Jul-24 19:33N 52°38' E 001°52'7 6.7
2014-Jul-24 18:33N 52°31' E 001°53'7 7.1
2014-Jul-24 17:32N 52°24' E 001°53'8 8.1
2014-Jul-24 16:33N 52°16' E 001°52'9 9.4
2014-Jul-24 15:33N 52°07' E 001°51'1010.5
2014-Jul-24 14:34N 51°56' E 001°49'1110.7
2014-Jul-24 13:33N 51°46' E 001°49'1010.3
2014-Jul-24 12:34N 51°35' E 001°48'1010.4
2014-Jul-24 11:34N 51°25' E 001°44'1110.6
2014-Jul-24 10:34N 51°15' E 001°40'9 8.5
2014-Jul-24 09:34N 51°07' E 001°41'1010.4
2014-Jul-24 08:34N 50°59' E 001°30'9 9.3
2014-Jul-24 07:34N 50°50' E 001°23'9 8.8
2014-Jul-24 06:33N 50°42' E 001°18'9 8.8
2014-Jul-24 05:34N 50°37' E 001°07'12 8.6
2014-Jul-24 04:07N 50°31' E 000°50'5 8.4
2014-Jul-24 03:33N 50°29' E 000°43'8 8.2
2014-Jul-24 02:32N 50°27' E 000°31'8 7.9
2014-Jul-24 01:31N 50°25' E 000°19'17 8.0
2014-Jul-23 23:22N 50°20' W 000°07'7 8.2
2014-Jul-23 22:34N 50°18' W 000°17'9 8.6
2014-Jul-23 21:34N 50°15' W 000°30'198 9.8
2014-Jul-23 01:30N 48°56' W 005°09'  
2014-Jul-20 01:08N 38°30' W 009°38'5 9.3
2014-Jul-20 00:33N 38°26' W 009°33'9 9.2
2014-Jul-19 23:33N 38°20' W 009°24'9 9.0
2014-Jul-19 22:33N 38°13' W 009°16'9 9.0
2014-Jul-19 21:33N 38°07' W 009°08'9 9.1
2014-Jul-19 20:33N 38°01' W 008°59'8 7.4
2014-Jul-19 19:33N 37°56' W 008°52'0 0.1
2014-Jul-19 18:31N 37°56' W 008°51'0 0.0
2014-Jul-19 17:31N 37°56' W 008°51'0 0.0
2014-Jul-19 16:31N 37°56' W 008°51'0 0.0
2014-Jul-19 15:31N 37°56' W 008°51'0 0.0
2014-Jul-19 14:31N 37°56' W 008°51'0 0.0
2014-Jul-19 13:31N 37°56' W 008°51'0 0.0
2014-Jul-19 12:31N 37°56' W 008°51'0 0.0
2014-Jul-19 11:31N 37°56' W 008°51'0 0.0
2014-Jul-19 10:31N 37°56' W 008°51'0 0.0
2014-Jul-19 09:31N 37°56' W 008°51'0 0.0
2014-Jul-19 08:31N 37°56' W 008°51'0 0.0
2014-Jul-19 07:31N 37°56' W 008°51'0 0.0
2014-Jul-19 06:31N 37°56' W 008°51'0 0.0
2014-Jul-19 05:31N 37°56' W 008°51'0 0.0
2014-Jul-19 04:31N 37°56' W 008°51'0 0.0
2014-Jul-19 03:31N 37°56' W 008°51'0 0.0
2014-Jul-19 02:31N 37°56' W 008°51'0 0.0
2014-Jul-19 01:31N 37°56' W 008°51'0 0.0
2014-Jul-19 00:28N 37°56' W 008°51'0 0.0
2014-Jul-18 23:31N 37°56' W 008°51'0 0.0
2014-Jul-18 22:31N 37°56' W 008°51'0 0.0
2014-Jul-18 21:31N 37°56' W 008°51'0 0.0
2014-Jul-18 20:31N 37°56' W 008°51'0 0.0
2014-Jul-18 19:33N 37°56' W 008°51'5 4.5
2014-Jul-18 18:33N 37°52' W 008°54'10 9.5
2014-Jul-18 17:33N 37°43' W 008°59'1211.7
2014-Jul-18 16:33N 37°33' W 009°04'1211.5
2014-Jul-18 15:33N 37°22' W 009°10'70 9.9
2014-Jul-18 08:32N 36°14' W 008°47'2210.2
2014-Jul-18 06:21N 35°54' W 008°38'20 9.8
2014-Jul-18 04:19N 35°35' W 008°29'17 9.7
2014-Jul-18 02:31N 35°19' W 008°21'  
2014-Jul-15 14:26N 33°40' W 007°32'  
Track history (hours):
 
Tides and Currents Weather Stations Pressure Air Temp Water Temp Dewpoint Dewpoint Depression Visibility Wind Speed Wind Dir Waves Ship Positions

Cfl Performer

Last reported at 2014-Jul-25 10:33 UTC. Time now 2014-Jul-25 11:17 UTC.
Position N 53°38' W 000°12'.

Length 117 m; draft 6.2 m.

Type: Cargo ship. MMSI: 244989000.

Date/timePositionNaut miles runAvg speedWind from/ knotsBaromVisibWave heightAir tempDewpointWater temp
2014-Jul-25 10:33N 53°38' W 000°12'0 0.0
2014-Jul-25 09:33N 53°38' W 000°12'0 0.0
2014-Jul-25 08:33N 53°38' W 000°12'0 0.3
2014-Jul-25 07:34N 53°38' W 000°11'2 1.8
2014-Jul-25 06:33N 53°38' W 000°08'8 8.1
2014-Jul-25 05:34N 53°35' E 000°04'8 7.6
2014-Jul-25 04:34N 53°32' E 000°16'6 6.0
2014-Jul-25 03:33N 53°29' E 000°25'8 7.9
2014-Jul-25 02:34N 53°26' E 000°37'9 9.0
2014-Jul-25 01:33N 53°22' E 000°51'1010.0
2014-Jul-25 00:34N 53°16' E 001°04'1110.8
2014-Jul-24 23:33N 53°08' E 001°16'1110.7
2014-Jul-24 22:34N 52°59' E 001°27'1010.2
2014-Jul-24 21:34N 52°52' E 001°37'9 8.9
2014-Jul-24 20:33N 52°44' E 001°45'7 7.4
2014-Jul-24 19:33N 52°38' E 001°52'7 6.7
2014-Jul-24 18:33N 52°31' E 001°53'7 7.1
2014-Jul-24 17:32N 52°24' E 001°53'8 8.1
2014-Jul-24 16:33N 52°16' E 001°52'9 9.4
2014-Jul-24 15:33N 52°07' E 001°51'1010.5
2014-Jul-24 14:34N 51°56' E 001°49'1110.7
2014-Jul-24 13:33N 51°46' E 001°49'1010.3
2014-Jul-24 12:34N 51°35' E 001°48'1010.4
2014-Jul-24 11:34N 51°25' E 001°44'1110.6
2014-Jul-24 10:34N 51°15' E 001°40'9 8.5
2014-Jul-24 09:34N 51°07' E 001°41'1010.4
2014-Jul-24 08:34N 50°59' E 001°30'9 9.3
2014-Jul-24 07:34N 50°50' E 001°23'9 8.8
2014-Jul-24 06:33N 50°42' E 001°18'9 8.8
2014-Jul-24 05:34N 50°37' E 001°07'12 8.6
2014-Jul-24 04:07N 50°31' E 000°50'5 8.4
2014-Jul-24 03:33N 50°29' E 000°43'8 8.2
2014-Jul-24 02:32N 50°27' E 000°31'8 7.9
2014-Jul-24 01:31N 50°25' E 000°19'17 8.0
2014-Jul-23 23:22N 50°20' W 000°07'7 8.2
2014-Jul-23 22:34N 50°18' W 000°17'9 8.6
2014-Jul-23 21:34N 50°15' W 000°30'198 9.8
2014-Jul-23 01:30N 48°56' W 005°09'  
2014-Jul-20 01:08N 38°30' W 009°38'5 9.3
2014-Jul-20 00:33N 38°26' W 009°33'9 9.2
2014-Jul-19 23:33N 38°20' W 009°24'9 9.0
2014-Jul-19 22:33N 38°13' W 009°16'9 9.0
2014-Jul-19 21:33N 38°07' W 009°08'9 9.1
2014-Jul-19 20:33N 38°01' W 008°59'8 7.4
2014-Jul-19 19:33N 37°56' W 008°52'0 0.1
2014-Jul-19 18:31N 37°56' W 008°51'0 0.0
2014-Jul-19 17:31N 37°56' W 008°51'0 0.0
2014-Jul-19 16:31N 37°56' W 008°51'0 0.0
2014-Jul-19 15:31N 37°56' W 008°51'0 0.0
2014-Jul-19 14:31N 37°56' W 008°51'0 0.0
2014-Jul-19 13:31N 37°56' W 008°51'0 0.0
2014-Jul-19 12:31N 37°56' W 008°51'0 0.0
2014-Jul-19 11:31N 37°56' W 008°51'0 0.0
2014-Jul-19 10:31N 37°56' W 008°51'0 0.0
2014-Jul-19 09:31N 37°56' W 008°51'0 0.0
2014-Jul-19 08:31N 37°56' W 008°51'0 0.0
2014-Jul-19 07:31N 37°56' W 008°51'0 0.0
2014-Jul-19 06:31N 37°56' W 008°51'0 0.0
2014-Jul-19 05:31N 37°56' W 008°51'0 0.0
2014-Jul-19 04:31N 37°56' W 008°51'0 0.0
2014-Jul-19 03:31N 37°56' W 008°51'0 0.0
2014-Jul-19 02:31N 37°56' W 008°51'0 0.0
2014-Jul-19 01:31N 37°56' W 008°51'0 0.0
2014-Jul-19 00:28N 37°56' W 008°51'0 0.0
2014-Jul-18 23:31N 37°56' W 008°51'0 0.0
2014-Jul-18 22:31N 37°56' W 008°51'0 0.0
2014-Jul-18 21:31N 37°56' W 008°51'0 0.0
2014-Jul-18 20:31N 37°56' W 008°51'0 0.0
2014-Jul-18 19:33N 37°56' W 008°51'5 4.5
2014-Jul-18 18:33N 37°52' W 008°54'10 9.5
2014-Jul-18 17:33N 37°43' W 008°59'1211.7
2014-Jul-18 16:33N 37°33' W 009°04'1211.5
2014-Jul-18 15:33N 37°22' W 009°10'70 9.9
2014-Jul-18 08:32N 36°14' W 008°47'2210.2
2014-Jul-18 06:21N 35°54' W 008°38'20 9.8
2014-Jul-18 04:19N 35°35' W 008°29'17 9.7
2014-Jul-18 02:31N 35°19' W 008°21'  
2014-Jul-15 14:26N 33°40' W 007°32'  

Dump ship's entire track history